createdAt,value
2023-07-27T00:02:13.251Z,1.60
2023-07-27T00:04:40.340Z,1.60
2023-07-27T00:07:07.579Z,1.50
2023-07-27T00:09:34.662Z,2.07
2023-07-27T00:12:01.693Z,1.30
2023-07-27T00:14:28.788Z,1.43
2023-07-27T00:16:55.880Z,1.57
2023-07-27T00:19:23.075Z,1.40
2023-07-27T00:21:50.258Z,1.30
2023-07-27T00:24:17.441Z,1.90
2023-07-27T00:26:44.514Z,1.40
2023-07-27T00:29:11.596Z,2.30
2023-07-27T00:31:38.652Z,1.30
2023-07-27T00:34:05.781Z,1.50
2023-07-27T00:36:33.293Z,1.70
2023-07-27T00:39:00.723Z,1.63
2023-07-27T00:41:27.893Z,1.53
2023-07-27T00:43:54.978Z,1.83
2023-07-27T00:46:22.259Z,1.93
2023-07-27T00:48:50.326Z,1.57
2023-07-27T00:51:17.477Z,1.70
2023-07-27T00:53:44.975Z,1.73
2023-07-27T00:56:12.164Z,1.77
2023-07-27T00:58:39.677Z,1.90
2023-07-27T01:01:07.412Z,1.60
2023-07-27T01:03:36.374Z,2.10
2023-07-27T01:06:03.772Z,1.63
2023-07-27T01:08:32.236Z,1.83
2023-07-27T01:11:15.197Z,2.27
2023-07-27T01:13:52.500Z,2.20
2023-07-27T01:16:46.708Z,2.07
2023-07-27T01:19:59.299Z,2.57
2023-07-27T01:22:32.407Z,2.37
2023-07-27T01:25:11.762Z,2.43
2023-07-27T01:27:47.388Z,1.73
2023-07-27T01:30:29.696Z,2.13
2023-07-27T01:33:02.311Z,2.03
2023-07-27T01:35:54.578Z,2.00
2023-07-27T01:38:23.510Z,2.57
2023-07-27T01:40:52.082Z,2.20
2023-07-27T01:43:19.662Z,2.00
2023-07-27T01:45:47.589Z,1.80
2023-07-27T01:48:19.183Z,2.33
2023-07-27T01:50:48.377Z,2.07
2023-07-27T01:53:18.838Z,1.90
2023-07-27T01:55:47.134Z,2.10
2023-07-27T01:58:16.823Z,1.87
2023-07-27T02:00:44.350Z,2.37
2023-07-27T02:03:12.466Z,2.43
2023-07-27T02:05:39.571Z,1.93
2023-07-27T02:08:07.479Z,2.00
2023-07-27T02:10:35.884Z,2.10
2023-07-27T02:13:30.961Z,2.47
2023-07-27T02:16:29.914Z,2.17
2023-07-27T02:18:59.938Z,1.97
2023-07-27T02:21:29.142Z,2.77
2023-07-27T02:23:56.911Z,2.37
2023-07-27T02:26:24.012Z,2.20
2023-07-27T02:28:51.312Z,2.57
2023-07-27T02:31:19.064Z,3.00
2023-07-27T02:33:46.504Z,2.40
2023-07-27T02:36:13.691Z,2.13
2023-07-27T02:38:40.887Z,2.40
2023-07-27T02:41:11.737Z,2.00
2023-07-27T02:43:40.814Z,2.30
2023-07-27T02:46:09.757Z,3.10
2023-07-27T02:48:37.347Z,2.73
2023-07-27T02:51:06.508Z,2.60
2023-07-27T02:53:33.644Z,2.90
2023-07-27T02:56:05.184Z,3.10
2023-07-27T02:58:41.275Z,2.73
2023-07-27T03:01:08.352Z,2.13
2023-07-27T03:03:35.687Z,2.80
2023-07-27T03:06:11.237Z,2.70
2023-07-27T03:08:41.840Z,2.20
2023-07-27T03:11:09.097Z,2.97
2023-07-27T03:13:38.537Z,2.87
2023-07-27T03:16:06.382Z,3.40
2023-07-27T03:18:34.971Z,2.30
2023-07-27T03:21:06.057Z,2.30
2023-07-27T03:23:34.655Z,3.13
2023-07-27T03:26:02.123Z,2.83
2023-07-27T03:28:29.256Z,4.10
2023-07-27T03:30:56.373Z,2.67
2023-07-27T03:33:23.548Z,3.00
2023-07-27T03:35:50.666Z,2.77
2023-07-27T03:38:17.774Z,2.27
2023-07-27T03:40:44.922Z,3.20
2023-07-27T03:43:12.328Z,2.87
2023-07-27T03:45:41.692Z,3.40
2023-07-27T03:48:08.826Z,3.10
2023-07-27T03:50:35.932Z,3.00
2023-07-27T03:53:03.005Z,2.60
2023-07-27T03:55:30.728Z,3.13
2023-07-27T03:57:58.402Z,3.00
2023-07-27T04:00:25.802Z,2.27
2023-07-27T04:02:53.169Z,3.17
2023-07-27T04:05:20.438Z,2.80
2023-07-27T04:07:53.149Z,2.50
2023-07-27T04:10:20.660Z,2.80
2023-07-27T04:12:48.443Z,3.00
2023-07-27T04:15:15.681Z,3.37
2023-07-27T04:17:42.997Z,2.90
2023-07-27T04:20:11.352Z,3.57
2023-07-27T04:22:38.516Z,3.17
2023-07-27T04:25:06.737Z,3.90
2023-07-27T04:27:34.175Z,3.60
2023-07-27T04:30:01.436Z,2.53
2023-07-27T04:32:32.717Z,2.70
2023-07-27T04:34:59.830Z,2.73
2023-07-27T04:37:26.917Z,3.47
2023-07-27T04:39:54.048Z,2.60
2023-07-27T04:42:21.107Z,2.83
2023-07-27T04:44:48.200Z,2.80
2023-07-27T04:47:15.309Z,2.80
2023-07-27T04:49:42.422Z,2.53
2023-07-27T04:52:09.599Z,2.70
2023-07-27T04:54:36.758Z,2.50
2023-07-27T04:57:03.867Z,3.20
2023-07-27T04:59:30.976Z,2.23
2023-07-27T05:01:58.151Z,2.90
2023-07-27T05:04:25.346Z,2.37
2023-07-27T05:06:52.442Z,3.03
2023-07-27T05:09:19.569Z,2.50
2023-07-27T05:11:46.653Z,2.70
2023-07-27T05:14:13.747Z,1.80
2023-07-27T05:16:41.276Z,2.20
2023-07-27T05:19:08.419Z,2.17
2023-07-27T05:21:35.652Z,2.60
2023-07-27T05:24:02.670Z,2.30
2023-07-27T05:26:29.795Z,1.70
2023-07-27T05:28:59.933Z,2.40
2023-07-27T05:31:27.608Z,1.87
2023-07-27T05:33:54.705Z,1.87
2023-07-27T05:36:21.804Z,1.93
2023-07-27T05:38:48.870Z,1.90
2023-07-27T05:41:15.984Z,1.60
2023-07-27T05:43:43.040Z,1.83
2023-07-27T05:46:10.321Z,2.23
2023-07-27T05:48:37.500Z,1.80
2023-07-27T05:51:04.657Z,2.10
2023-07-27T05:53:31.742Z,1.87
2023-07-27T05:55:58.858Z,2.00
2023-07-27T05:58:26.561Z,2.50
2023-07-27T06:01:04.819Z,1.60
2023-07-27T06:03:33.020Z,2.07
2023-07-27T06:06:00.420Z,1.60
2023-07-27T06:08:28.724Z,1.80
2023-07-27T06:11:05.652Z,2.00
2023-07-27T06:13:33.909Z,2.07
2023-07-27T06:16:01.968Z,2.03
2023-07-27T06:18:29.308Z,1.87
2023-07-27T06:20:56.622Z,2.07
2023-07-27T06:23:23.806Z,1.70
2023-07-27T06:25:51.099Z,1.87
2023-07-27T06:28:20.119Z,1.70
2023-07-27T06:30:47.251Z,1.97
2023-07-27T06:33:15.419Z,1.97
2023-07-27T06:35:43.329Z,3.63
2023-07-27T06:38:10.635Z,1.80
2023-07-27T06:40:37.907Z,1.90
2023-07-27T06:43:05.302Z,1.90
2023-07-27T06:45:32.548Z,2.30
2023-07-27T06:47:59.684Z,2.10
2023-07-27T06:50:27.335Z,1.97
2023-07-27T06:52:54.453Z,1.80
2023-07-27T06:55:21.622Z,1.57
2023-07-27T06:57:48.759Z,2.27
2023-07-27T07:00:16.322Z,1.90
2023-07-27T07:02:43.554Z,2.33
2023-07-27T07:05:11.961Z,2.50
2023-07-27T07:07:40.160Z,1.77
2023-07-27T07:10:09.299Z,1.60
2023-07-27T07:12:36.448Z,2.30
2023-07-27T07:15:03.991Z,1.43
2023-07-27T07:17:31.490Z,1.80
2023-07-27T07:19:59.044Z,1.90
2023-07-27T07:22:26.124Z,1.77
2023-07-27T07:24:53.898Z,2.30
2023-07-27T07:27:21.032Z,1.83
2023-07-27T07:29:48.260Z,2.10
2023-07-27T07:32:15.312Z,1.40
2023-07-27T07:34:42.396Z,3.87
2023-07-27T07:37:09.475Z,1.67
2023-07-27T07:39:36.630Z,1.70
2023-07-27T07:42:04.235Z,1.50
2023-07-27T07:44:31.461Z,1.97
2023-07-27T07:46:58.648Z,2.03
2023-07-27T07:49:27.512Z,1.50
2023-07-27T07:51:54.842Z,2.37
2023-07-27T07:54:22.059Z,1.47
2023-07-27T07:56:49.521Z,2.03
2023-07-27T07:59:16.835Z,1.73
2023-07-27T08:01:43.926Z,1.30
2023-07-27T08:04:11.045Z,1.60
2023-07-27T08:06:38.459Z,1.40
2023-07-27T08:09:07.136Z,2.20
2023-07-27T08:11:34.738Z,2.00
2023-07-27T08:14:03.750Z,1.23
2023-07-27T08:16:31.512Z,1.83
2023-07-27T08:18:58.889Z,1.83
2023-07-27T08:21:27.221Z,1.80
2023-07-27T08:23:54.319Z,1.90
2023-07-27T08:26:21.543Z,1.60
2023-07-27T08:28:49.084Z,1.67
2023-07-27T08:31:16.286Z,1.60
2023-07-27T08:33:43.504Z,2.10
2023-07-27T08:36:10.904Z,1.70
2023-07-27T08:38:38.065Z,1.40
2023-07-27T08:41:05.227Z,1.77
2023-07-27T08:43:32.389Z,1.63
2023-07-27T08:46:00.751Z,1.60
2023-07-27T08:48:29.898Z,1.70
2023-07-27T08:51:00.512Z,1.67
2023-07-27T08:53:27.973Z,1.57
2023-07-27T08:55:55.517Z,2.20
2023-07-27T08:58:22.694Z,1.93
2023-07-27T09:00:50.128Z,2.07
2023-07-27T09:03:17.315Z,2.50
2023-07-27T09:05:56.704Z,2.23
2023-07-27T09:08:24.017Z,1.47
2023-07-27T09:10:51.258Z,1.40
2023-07-27T09:13:18.637Z,1.50
2023-07-27T09:15:46.553Z,1.70
2023-07-27T09:18:15.324Z,1.90
2023-07-27T09:20:43.903Z,1.57
2023-07-27T09:23:20.876Z,2.20
2023-07-27T09:25:57.386Z,1.47
2023-07-27T09:28:30.417Z,1.77
2023-07-27T09:31:03.636Z,1.73
2023-07-27T09:33:31.419Z,1.90
2023-07-27T09:35:58.629Z,1.50
2023-07-27T09:38:28.846Z,1.67
2023-07-27T09:40:56.557Z,1.80
2023-07-27T09:43:27.014Z,1.83
2023-07-27T09:45:59.506Z,1.43
2023-07-27T09:48:30.967Z,2.03
2023-07-27T09:51:08.936Z,1.30
2023-07-27T09:53:38.329Z,1.83
2023-07-27T09:56:08.426Z,2.30
2023-07-27T09:58:40.773Z,1.20
2023-07-27T10:01:09.535Z,1.70
2023-07-27T10:03:38.038Z,1.60
2023-07-27T10:06:07.236Z,1.50
2023-07-27T10:08:35.039Z,1.67
2023-07-27T10:11:03.545Z,2.00
2023-07-27T10:13:30.645Z,1.80
2023-07-27T10:15:58.469Z,1.53
2023-07-27T10:18:28.695Z,1.30
2023-07-27T10:20:58.219Z,1.87
2023-07-27T10:23:30.375Z,1.60
2023-07-27T10:25:57.703Z,1.87
2023-07-27T10:28:49.975Z,2.20
2023-07-27T10:31:27.169Z,1.90
2023-07-27T10:34:14.589Z,1.77
2023-07-27T10:37:00.389Z,1.67
2023-07-27T10:39:32.470Z,2.10
2023-07-27T10:42:11.658Z,2.23
2023-07-27T10:45:00.205Z,1.70
2023-07-27T10:47:38.753Z,1.40
2023-07-27T10:50:07.166Z,1.87
2023-07-27T10:52:40.190Z,2.20
2023-07-27T10:55:08.752Z,1.70
2023-07-27T10:57:38.801Z,1.90
2023-07-27T11:00:07.260Z,1.80
2023-07-27T11:02:37.359Z,1.70
2023-07-27T11:05:07.903Z,2.00
2023-07-27T11:07:45.664Z,1.90
2023-07-27T11:10:17.276Z,1.87
2023-07-27T11:12:58.711Z,1.80
2023-07-27T11:15:30.719Z,2.20
2023-07-27T11:18:02.912Z,2.10
2023-07-27T11:20:30.689Z,4.10
2023-07-27T11:22:59.559Z,1.90
2023-07-27T11:25:36.024Z,1.87
2023-07-27T11:28:05.052Z,1.90
2023-07-27T11:30:37.375Z,2.00
2023-07-27T11:33:06.545Z,1.80
2023-07-27T11:35:34.299Z,1.60
2023-07-27T11:38:02.199Z,1.77
2023-07-27T11:40:30.063Z,2.20
2023-07-27T11:42:57.369Z,1.90
2023-07-27T11:45:25.894Z,1.80
2023-07-27T11:47:54.421Z,1.90
2023-07-27T11:50:22.633Z,1.97
2023-07-27T11:53:02.439Z,1.70
2023-07-27T11:55:37.628Z,2.63
2023-07-27T11:58:11.811Z,2.70
2023-07-27T12:00:39.017Z,1.50
2023-07-27T12:03:20.912Z,2.10
2023-07-27T12:05:55.202Z,2.20
2023-07-27T12:11:04.091Z,1.43
2023-07-27T12:23:38.794Z,1.90
2023-07-27T12:33:36.151Z,1.97
2023-07-27T12:36:03.408Z,1.83
2023-07-27T12:41:00.481Z,1.80
2023-07-27T12:43:27.577Z,1.90
2023-07-27T12:45:54.648Z,2.17
2023-07-27T12:48:21.736Z,2.20
2023-07-27T12:50:48.813Z,1.50
2023-07-27T12:53:15.893Z,2.10
2023-07-27T12:55:43.126Z,1.97
2023-07-27T12:58:10.279Z,2.10
2023-07-27T13:00:37.332Z,2.70
2023-07-27T13:03:04.573Z,2.60
2023-07-27T13:05:31.921Z,2.13
2023-07-27T13:07:59.116Z,1.70
2023-07-27T13:10:26.276Z,2.20
2023-07-27T13:12:53.484Z,2.00
2023-07-27T13:15:21.307Z,2.80
2023-07-27T13:17:48.923Z,2.77
2023-07-27T13:20:16.098Z,2.27
2023-07-27T13:22:43.345Z,3.13
2023-07-27T13:25:10.698Z,2.70
2023-07-27T13:27:37.842Z,3.00
2023-07-27T13:30:06.142Z,3.10
2023-07-27T13:32:33.821Z,3.10
2023-07-27T13:35:01.533Z,2.47
2023-07-27T13:37:30.854Z,2.57
2023-07-27T13:39:58.276Z,2.97
2023-07-27T13:42:25.843Z,4.30
2023-07-27T13:44:53.577Z,3.13
2023-07-27T13:47:20.806Z,2.17
2023-07-27T13:49:47.998Z,4.00
2023-07-27T13:52:15.702Z,2.77
2023-07-27T13:54:43.440Z,3.20
2023-07-27T13:57:10.557Z,2.93
2023-07-27T13:59:37.681Z,2.40
2023-07-27T14:02:05.588Z,3.40
2023-07-27T14:04:32.989Z,2.87
2023-07-27T14:07:00.062Z,2.70
2023-07-27T14:09:28.154Z,2.80
2023-07-27T14:11:55.198Z,2.87
2023-07-27T14:14:22.285Z,2.87
2023-07-27T14:16:49.349Z,2.90
2023-07-27T14:19:16.456Z,2.40
2023-07-27T14:21:43.539Z,2.60
2023-07-27T14:24:10.597Z,2.33
2023-07-27T14:26:37.850Z,2.47
2023-07-27T14:29:05.196Z,3.00
2023-07-27T14:31:33.287Z,2.10
2023-07-27T14:34:04.241Z,3.20
2023-07-27T14:36:31.408Z,1.97
2023-07-27T14:41:28.868Z,1.97
2023-07-27T14:43:55.974Z,2.10
2023-07-27T14:46:23.177Z,2.00
2023-07-27T14:48:50.381Z,2.53
2023-07-27T14:51:17.711Z,3.00
2023-07-27T14:53:46.478Z,2.87
2023-07-27T14:56:13.731Z,5.43
2023-07-27T15:01:10.860Z,2.17
2023-07-27T15:03:40.736Z,2.07
2023-07-27T15:06:18.566Z,1.60
2023-07-27T15:08:46.004Z,2.73
2023-07-27T15:13:43.526Z,2.37
2023-07-27T15:16:10.726Z,2.07
2023-07-27T15:18:38.368Z,3.03
2023-07-27T15:21:05.505Z,1.93
2023-07-27T15:23:32.997Z,1.83
2023-07-27T15:26:05.840Z,2.53
2023-07-27T15:28:34.393Z,2.10
2023-07-27T15:31:01.669Z,2.10
2023-07-27T15:33:30.111Z,2.00
2023-07-27T15:35:57.842Z,2.20
2023-07-27T15:38:25.237Z,1.50
2023-07-27T15:40:58.375Z,1.67
2023-07-27T15:43:25.934Z,1.90
2023-07-27T15:45:53.160Z,8.20
2023-07-27T15:48:22.908Z,3.50
2023-07-27T15:50:50.102Z,2.13
2023-07-27T15:53:17.378Z,2.90
2023-07-27T15:55:44.621Z,2.57
2023-07-27T15:58:11.959Z,2.10
2023-07-27T16:00:40.542Z,2.90
2023-07-27T16:03:08.343Z,2.10
2023-07-27T16:05:39.836Z,2.17
2023-07-27T16:08:07.903Z,1.70
2023-07-27T16:10:35.015Z,1.43
2023-07-27T16:13:02.212Z,2.17
2023-07-27T16:15:29.799Z,1.60
2023-07-27T16:17:57.443Z,1.80
2023-07-27T16:20:24.855Z,1.70
2023-07-27T16:22:52.991Z,1.57
2023-07-27T16:25:23.396Z,1.60
2023-07-27T16:27:50.773Z,1.30
2023-07-27T16:30:19.244Z,1.87
2023-07-27T16:32:46.665Z,1.83
2023-07-27T16:35:13.937Z,1.50
2023-07-27T16:37:41.107Z,1.57
2023-07-27T16:40:08.991Z,1.30
2023-07-27T16:42:36.129Z,2.10
2023-07-27T16:45:03.600Z,1.27
2023-07-27T16:47:31.858Z,1.57
2023-07-27T16:49:59.122Z,1.20
2023-07-27T16:52:26.188Z,2.20
2023-07-27T16:54:53.379Z,1.60
2023-07-27T16:57:20.472Z,1.77
2023-07-27T16:59:47.600Z,1.53
2023-07-27T17:02:15.979Z,1.37
2023-07-27T17:04:43.345Z,1.60
2023-07-27T17:07:10.533Z,1.80
2023-07-27T17:09:38.298Z,1.70
2023-07-27T17:12:09.947Z,1.70
2023-07-27T17:14:37.849Z,1.67
2023-07-27T17:17:05.440Z,1.60
2023-07-27T17:19:32.683Z,1.90
2023-07-27T17:21:59.777Z,1.63
2023-07-27T17:24:26.983Z,1.43
2023-07-27T17:26:54.099Z,1.60
2023-07-27T17:29:21.200Z,1.90
2023-07-27T17:31:48.349Z,1.40
2023-07-27T17:34:15.669Z,1.63
2023-07-27T17:36:42.755Z,2.10
2023-07-27T17:39:09.869Z,1.70
2023-07-27T17:41:37.230Z,1.40
2023-07-27T17:44:05.117Z,2.27
2023-07-27T17:46:34.798Z,1.50
2023-07-27T17:49:02.130Z,1.40
2023-07-27T17:51:29.465Z,1.70
2023-07-27T17:53:56.508Z,1.70
2023-07-27T17:56:23.775Z,2.03
2023-07-27T17:58:51.064Z,1.20
2023-07-27T18:01:18.167Z,1.50
2023-07-27T18:03:45.467Z,1.33
2023-07-27T18:06:12.761Z,1.10
2023-07-27T18:08:40.305Z,1.10
2023-07-27T18:11:13.284Z,1.20
2023-07-27T18:13:42.235Z,1.30
2023-07-27T18:16:12.173Z,1.40
2023-07-27T18:18:39.807Z,1.33
2023-07-27T18:21:16.232Z,1.37
2023-07-27T18:23:44.725Z,1.27
2023-07-27T18:26:20.090Z,1.33
2023-07-27T18:28:49.529Z,1.10
2023-07-27T18:31:18.058Z,1.20
2023-07-27T18:33:45.480Z,1.00
2023-07-27T18:36:16.207Z,1.27
2023-07-27T18:38:46.291Z,0.80
2023-07-27T18:41:15.588Z,0.80
2023-07-27T18:43:43.263Z,0.90
2023-07-27T18:46:10.955Z,0.90
2023-07-27T18:48:38.225Z,0.80
2023-07-27T18:51:05.413Z,1.00
2023-07-27T18:53:32.697Z,1.00
2023-07-27T18:55:59.829Z,0.90
2023-07-27T18:58:26.931Z,0.90
2023-07-27T19:00:54.586Z,1.53
2023-07-27T19:03:24.412Z,0.97
2023-07-27T19:05:52.383Z,0.93
2023-07-27T19:08:21.498Z,1.00
2023-07-27T19:10:48.777Z,0.80
2023-07-27T19:13:15.989Z,0.80
2023-07-27T19:15:50.578Z,0.80
2023-07-27T19:18:19.301Z,0.80
2023-07-27T19:20:46.566Z,1.00
2023-07-27T19:23:13.705Z,0.80
2023-07-27T19:25:46.026Z,0.80
2023-07-27T19:28:13.567Z,0.70
2023-07-27T19:30:45.023Z,0.80
2023-07-27T19:33:14.435Z,1.00
2023-07-27T19:35:42.991Z,0.87
2023-07-27T19:38:11.326Z,0.60
2023-07-27T19:40:38.588Z,0.77
2023-07-27T19:43:06.018Z,0.90
2023-07-27T19:45:33.156Z,0.90
2023-07-27T19:48:00.456Z,0.80
2023-07-27T19:50:27.856Z,0.70
2023-07-27T19:52:55.147Z,0.80
2023-07-27T19:55:24.220Z,0.80
2023-07-27T19:57:51.649Z,0.90
2023-07-27T20:00:19.336Z,0.60
2023-07-27T20:02:49.368Z,0.80
2023-07-27T20:05:16.896Z,0.60
2023-07-27T20:07:43.984Z,0.73
2023-07-27T20:10:11.391Z,1.00
2023-07-27T20:12:38.504Z,0.90
2023-07-27T20:15:06.310Z,0.70
2023-07-27T20:17:33.399Z,0.90
2023-07-27T20:20:00.951Z,0.70
2023-07-27T20:22:28.138Z,0.80
2023-07-27T20:24:55.232Z,0.70
2023-07-27T20:27:22.350Z,0.70
2023-07-27T20:29:49.415Z,0.60
2023-07-27T20:32:16.576Z,0.57
2023-07-27T20:34:43.868Z,0.60
2023-07-27T20:37:10.981Z,0.60
2023-07-27T20:39:38.379Z,1.03
2023-07-27T20:42:05.861Z,0.87
2023-07-27T20:44:32.968Z,0.60
2023-07-27T20:47:00.043Z,0.70
2023-07-27T20:49:29.104Z,0.50
2023-07-27T20:51:56.194Z,0.63
2023-07-27T20:54:23.303Z,1.27
2023-07-27T20:56:50.471Z,0.60
2023-07-27T20:59:17.516Z,0.60
2023-07-27T21:01:44.617Z,0.80
2023-07-27T21:04:11.931Z,0.57
2023-07-27T21:06:41.260Z,0.60
2023-07-27T21:09:08.437Z,0.60
2023-07-27T21:11:35.659Z,0.70
2023-07-27T21:14:02.757Z,0.90
2023-07-27T21:16:33.064Z,0.67
2023-07-27T21:19:00.604Z,0.53
2023-07-27T21:21:32.306Z,0.90
2023-07-27T21:23:59.872Z,0.70
2023-07-27T21:26:27.101Z,0.67
2023-07-27T21:28:54.164Z,0.67
2023-07-27T21:31:21.315Z,0.60
2023-07-27T21:33:48.473Z,0.80
2023-07-27T21:36:16.057Z,0.50
2023-07-27T21:38:43.223Z,0.60
2023-07-27T21:41:10.804Z,1.27
2023-07-27T21:43:39.235Z,0.60
2023-07-27T21:46:06.602Z,0.60
2023-07-27T21:48:33.813Z,0.60
2023-07-27T21:51:01.035Z,0.60
2023-07-27T21:53:28.100Z,0.73
2023-07-27T21:55:55.192Z,0.73
2023-07-27T21:58:22.456Z,0.60
2023-07-27T22:00:49.531Z,0.60
2023-07-27T22:03:16.660Z,0.70
2023-07-27T22:05:45.705Z,0.67
2023-07-27T22:08:12.899Z,0.60
2023-07-27T22:10:41.233Z,0.60
2023-07-27T22:13:08.302Z,0.60
2023-07-27T22:15:35.371Z,0.70
2023-07-27T22:18:02.664Z,0.70
2023-07-27T22:20:29.825Z,0.70
2023-07-27T22:22:56.880Z,0.90
2023-07-27T22:25:24.021Z,0.60
2023-07-27T22:27:51.148Z,0.60
2023-07-27T22:30:18.486Z,0.60
2023-07-27T22:32:45.582Z,0.60
2023-07-27T22:35:12.873Z,0.70
2023-07-27T22:37:40.194Z,0.80
2023-07-27T22:40:08.520Z,0.80
2023-07-27T22:42:35.831Z,0.80
2023-07-27T22:45:03.968Z,0.70
2023-07-27T22:47:31.078Z,0.70
2023-07-27T22:49:58.221Z,0.53
2023-07-27T22:52:25.296Z,0.70
2023-07-27T22:54:52.597Z,0.60
2023-07-27T22:57:20.956Z,0.73
2023-07-27T22:59:49.921Z,0.80
2023-07-27T23:02:18.181Z,1.10
2023-07-27T23:04:45.352Z,0.53
2023-07-27T23:07:12.470Z,0.80
2023-07-27T23:09:39.551Z,0.60
2023-07-27T23:12:07.813Z,0.60
2023-07-27T23:14:34.955Z,0.70
2023-07-27T23:17:02.169Z,0.60
2023-07-27T23:19:29.261Z,0.77
2023-07-27T23:21:56.336Z,0.70
2023-07-27T23:24:23.583Z,0.60
2023-07-27T23:26:50.671Z,0.60
2023-07-27T23:29:17.775Z,0.63
2023-07-27T23:31:44.819Z,0.50
2023-07-27T23:34:11.975Z,0.60
2023-07-27T23:36:39.117Z,0.60
2023-07-27T23:39:06.154Z,0.60
2023-07-27T23:41:33.635Z,0.80
2023-07-27T23:44:00.691Z,0.63
2023-07-27T23:46:28.102Z,0.70
2023-07-27T23:48:55.147Z,0.70
2023-07-27T23:51:22.273Z,0.60
2023-07-27T23:53:49.369Z,0.80
2023-07-27T23:56:17.333Z,0.50
2023-07-27T23:58:44.397Z,0.63
